Time;durP1;ratioP1;P1;durP2;ratioP2;P2;SDS_P1;SDS_P2;PMS_P1;PMS_P2;Temp;Humidity;BMP_temperature;BMP_pressure;BME280_temperature;BME280_humidity;BME280_pressure;Samples;Min_cycle;Max_cycle;Signal;HPM_P1;HPM_P2
2023/04/24 00:00:40;;;;;;;6.45;4.97;;;12.70;99.90;;;13.12;100.00;99791.13;5032422;28;20107;-75
2023/04/24 00:03:09;;;;;;;9.45;4.53;;;12.80;99.90;;;13.06;100.00;99786.00;5032572;28;20037;-75
2023/04/24 00:05:40;;;;;;;4.28;3.97;;;12.80;99.90;;;12.94;100.00;99789.00;5032612;28;20041;-74
2023/04/24 00:08:08;;;;;;;;;;;12.70;99.90;;;12.75;100.00;99790.50;5032806;28;20042;-74
2023/04/24 00:10:36;;;;;;;4.43;3.90;;;12.60;99.90;;;12.66;100.00;99794.28;5032094;28;20397;-75
2023/04/24 00:13:05;;;;;;;4.30;4.00;;;12.40;99.90;;;12.67;100.00;99787.19;5030888;28;20049;-75
2023/04/24 00:15:33;;;;;;;5.22;4.13;;;12.40;99.90;;;12.70;100.00;99795.03;5031991;28;20038;-75
2023/04/24 00:18:02;;;;;;;3.83;3.33;;;12.40;99.90;;;12.58;100.00;99785.66;5031954;28;20132;-75
2023/04/24 00:20:32;;;;;;;4.88;3.53;;;12.40;99.90;;;12.52;100.00;99790.31;5030997;28;20046;-75
2023/04/24 00:23:02;;;;;;;3.85;3.45;;;12.30;99.90;;;12.35;100.00;99766.06;5032612;28;20486;-75
2023/04/24 00:25:30;;;;;;;6.63;3.70;;;12.30;99.90;;;12.50;100.00;99797.44;5032578;28;20080;-75
2023/04/24 00:27:58;;;;;;;6.25;3.30;;;12.30;99.90;;;12.35;100.00;99769.56;5031275;28;20038;-75
2023/04/24 00:30:27;;;;;;;4.57;3.80;;;12.30;99.90;;;12.43;100.00;99801.16;5032440;28;20046;-75
2023/04/24 00:32:55;;;;;;;4.70;3.53;;;12.20;99.90;;;12.51;100.00;99792.09;5031996;28;20384;-75
2023/04/24 00:35:24;;;;;;;7.63;4.25;;;12.20;99.90;;;12.47;100.00;99798.41;5032279;28;20061;-75
2023/04/24 00:37:53;;;;;;;5.72;3.97;;;12.20;99.90;;;11.98;100.00;99707.94;5047490;28;20041;-75
2023/04/24 00:40:23;;;;;;;3.72;3.42;;;12.30;99.90;;;12.47;100.00;99792.22;5031918;28;20049;-75
2023/04/24 00:42:51;;;;;;;5.55;3.88;;;12.20;99.90;;;12.44;100.00;99798.50;5032477;28;20049;-75
2023/04/24 00:45:20;;;;;;;7.88;4.10;;;12.20;99.90;;;12.24;100.00;99778.75;5031880;28;20063;-75
2023/04/24 00:47:50;;;;;;;4.50;4.10;;;12.00;99.90;;;12.31;100.00;99788.28;5032089;28;20047;-75
2023/04/24 00:50:19;;;;;;;5.18;3.88;;;12.10;99.90;;;12.36;100.00;99783.72;5031083;28;20045;-75
2023/04/24 00:52:47;;;;;;;6.50;3.80;;;12.00;99.90;;;12.47;100.00;99782.47;5032369;28;20479;-75
2023/04/24 00:55:16;;;;;;;4.15;3.60;;;12.20;99.90;;;12.55;100.00;99788.44;5032533;28;20530;-75
2023/04/24 00:57:47;;;;;;;5.38;3.90;;;12.20;99.90;;;12.64;100.00;99792.56;5035775;28;20107;-75
2023/04/24 01:00:17;;;;;;;4.32;3.95;;;12.30;99.90;;;12.64;100.00;99784.63;5035729;28;20041;-75
2023/04/24 01:02:46;;;;;;;6.28;3.78;;;12.40;99.90;;;12.52;100.00;99790.31;5035717;28;20056;-75
2023/04/24 01:05:17;;;;;;;3.25;2.95;;;12.30;99.90;;;12.47;100.00;99806.34;5035835;28;20049;-74
2023/04/24 01:07:48;;;;;;;3.10;2.90;;;12.20;99.90;;;12.39;100.00;99796.88;5050998;28;20046;-75
2023/04/24 01:10:18;;;;;;;3.75;3.10;;;12.10;99.90;;;12.47;100.00;99794.84;5067876;28;20083;-75
2023/04/24 01:12:48;;;;;;;3.00;2.80;;;12.20;99.90;;;12.42;99.97;99796.78;5034656;28;20041;-75
2023/04/24 01:15:17;;;;;;;3.00;2.80;;;12.20;99.90;;;12.38;100.00;99792.50;5034425;28;20303;-74
2023/04/24 01:17:45;;;;;;;3.30;3.10;;;12.10;99.90;;;12.27;100.00;99794.59;5035592;28;20294;-75
2023/04/24 01:20:15;;;;;;;3.43;3.23;;;12.00;99.90;;;12.36;100.00;99783.72;5035836;28;20400;-74
2023/04/24 01:22:45;;;;;;;3.38;3.05;;;12.10;99.90;;;12.44;100.00;99794.97;5035907;28;20655;-75
2023/04/24 01:25:13;;;;;;;3.33;3.13;;;12.10;99.90;;;12.41;100.00;99795.91;5035938;28;20133;-74
2023/04/24 01:27:42;;;;;;;3.25;3.05;;;12.20;99.90;;;12.41;100.00;99792.38;5036330;28;20045;-75
2023/04/24 01:30:14;;;;;;;3.40;3.20;;;12.20;99.90;;;12.44;100.00;99789.66;5034864;28;20091;-75
2023/04/24 01:32:45;;;;;;;3.58;3.28;;;12.20;99.90;;;12.39;100.00;99794.22;5036488;28;20434;-75
2023/04/24 01:35:13;;;;;;;4.25;3.50;;;12.20;99.90;;;12.14;100.00;99741.03;5036367;28;20045;-75
2023/04/24 01:37:42;;;;;;;3.38;3.17;;;12.20;99.90;;;12.51;100.00;99793.84;5034301;28;20140;-75
2023/04/24 01:40:12;;;;;;;3.88;3.55;;;12.20;99.90;;;12.60;99.91;99793.59;5035219;28;20041;-75
2023/04/24 01:42:43;;;;;;;4.60;3.10;;;12.30;99.90;;;12.41;99.22;99773.81;5050941;28;20582;-75
2023/04/24 01:45:12;;;;;;;;;;;12.30;99.90;;;12.57;99.29;99785.72;5035904;28;20391;-75
2023/04/24 01:47:41;;;;;;;4.00;3.70;;;12.30;99.90;;;12.56;99.06;99794.63;5034153;28;19956;-75
2023/04/24 01:50:10;;;;;;;3.65;3.10;;;12.30;99.90;;;12.57;99.50;99788.38;5035319;28;20061;-75
2023/04/24 01:52:40;;;;;;;4.43;3.33;;;12.30;99.90;;;12.65;99.59;99789.91;5033975;28;20049;-75
2023/04/24 01:55:12;;;;;;;5.88;3.47;;;12.30;99.90;;;12.65;99.48;99792.56;5035384;28;20034;-75
2023/04/24 01:57:41;;;;;;;4.40;3.28;;;12.40;99.90;;;12.71;99.23;99791.50;5035595;28;20060;-75
2023/04/24 02:00:11;;;;;;;4.10;3.50;;;12.40;99.90;;;12.69;99.39;99801.28;5034056;28;20049;-74
2023/04/24 02:02:40;;;;;;;;;;;12.40;99.90;;;12.66;99.40;99793.41;5035892;28;20505;-75
2023/04/24 02:05:10;;;;;;;5.75;3.88;;;12.40;99.90;;;12.68;99.45;99797.75;5067232;28;20027;-74
2023/04/24 02:07:39;;;;;;;4.28;3.83;;;12.40;99.90;;;12.57;100.00;99786.59;5050662;28;20063;-75
2023/04/24 02:10:11;;;;;;;4.22;3.83;;;12.30;99.90;;;12.64;100.00;99789.91;5033421;28;20049;-75
2023/04/24 02:12:43;;;;;;;4.55;4.15;;;12.30;99.90;;;12.64;100.00;99789.91;5050287;28;20384;-75
2023/04/24 02:15:12;;;;;;;5.97;4.30;;;12.30;99.90;;;12.38;100.00;99781.88;5034903;28;20047;-75
2023/04/24 02:17:40;;;;;;;4.97;4.40;;;12.30;99.90;;;12.52;100.00;99785.00;5034850;28;20049;-75
2023/04/24 02:20:09;;;;;;;5.28;4.28;;;12.20;99.90;;;12.29;100.00;99784.81;5034705;28;20132;-75
2023/04/24 02:22:39;;;;;;;7.40;4.13;;;12.10;99.90;;;12.14;100.00;99785.22;5034675;28;20430;-75
2023/04/24 02:25:09;;;;;;;4.72;4.32;;;12.00;99.90;;;11.99;100.00;99790.94;5034759;28;20050;-75
2023/04/24 02:27:38;;;;;;;5.75;3.90;;;11.80;99.90;;;11.84;100.00;99788.72;5034403;28;20107;-75
2023/04/24 02:30:09;;;;;;;6.70;4.63;;;11.60;99.90;;;11.89;100.00;99792.09;5034669;28;20091;-75
2023/04/24 02:32:38;;;;;;;5.68;4.45;;;11.60;99.90;;;11.48;100.00;99775.50;5049964;28;20483;-75
2023/04/24 02:35:08;;;;;;;4.50;4.05;;;11.40;99.90;;;11.54;100.00;99783.28;5066744;28;20049;-75
2023/04/24 02:37:37;;;;;;;4.97;3.80;;;11.30;99.90;;;11.35;100.00;99782.03;5034199;28;20042;-75
2023/04/24 02:40:07;;;;;;;5.38;3.60;;;11.10;99.90;;;11.37;100.00;99798.75;5034559;28;20045;-75
2023/04/24 02:42:35;;;;;;;5.65;3.78;;;11.10;99.90;;;11.28;100.00;99792.81;5034409;28;20057;-74
2023/04/24 02:45:07;;;;;;;3.72;3.47;;;11.10;99.90;;;11.14;100.00;99789.63;5033305;28;20107;-75
2023/04/24 02:47:35;;;;;;;8.63;4.57;;;11.00;99.90;;;11.14;100.00;99790.50;5049459;28;20140;-75
2023/04/24 02:50:05;;;;;;;5.55;4.38;;;10.90;99.90;;;11.21;100.00;99791.19;5032927;28;20091;-74
2023/04/24 02:52:34;;;;;;;7.55;4.10;;;11.00;99.90;;;11.35;100.00;99800.56;5034181;28;20041;-75
2023/04/24 02:55:02;;;;;;;6.95;4.38;;;11.10;99.90;;;11.46;100.00;99797.63;5034167;28;20481;-74
2023/04/24 02:57:31;;;;;;;5.68;4.35;;;11.20;99.90;;;11.32;100.00;99784.75;5034164;28;20053;-75
2023/04/24 02:59:59;;;;;;;6.35;4.13;;;11.20;99.90;;;11.40;100.00;99797.81;5033922;28;20125;-75
2023/04/24 03:02:29;;;;;;;4.82;4.15;;;11.20;99.90;;;11.52;100.00;99793.06;5033709;28;20465;-75
2023/04/24 03:04:58;;;;;;;4.30;3.90;;;11.30;99.90;;;11.62;100.00;99783.09;5032920;28;20057;-74
2023/04/24 03:07:26;;;;;;;4.95;3.72;;;11.40;99.90;;;11.64;100.00;99787.44;5033932;28;20069;-75
2023/04/24 03:09:55;;;;;;;6.15;3.92;;;11.40;99.90;;;11.75;100.00;99781.88;5033827;28;20049;-75
2023/04/24 03:12:23;;;;;;;6.72;3.60;;;11.50;99.90;;;11.83;100.00;99771.09;5033763;28;20041;-74
2023/04/24 03:14:52;;;;;;;4.25;3.90;;;11.60;99.90;;;12.02;100.00;99770.53;5033746;28;20364;-74
2023/04/24 03:17:20;;;;;;;5.35;4.15;;;11.70;99.90;;;12.15;100.00;99765.78;5033441;28;20053;-75
2023/04/24 03:19:50;;;;;;;6.10;3.58;;;11.90;99.90;;;12.20;100.00;99774.44;5033418;28;20116;-75
2023/04/24 03:22:19;;;;;;;4.20;3.80;;;11.90;99.90;;;12.24;100.00;99773.44;5032033;28;20050;-75
2023/04/24 03:24:47;;;;;;;5.90;3.80;;;12.00;99.90;;;11.90;100.00;99764.72;5032317;28;20611;-75
2023/04/24 03:27:18;;;;;;;;;;;11.80;99.90;;;11.61;100.00;99766.31;5032982;28;20104;-75
2023/04/24 03:30:00;;;;;;;6.53;4.40;;;11.50;99.90;;;11.52;100.00;99776.28;5032228;28;19921;-75
2023/04/24 03:32:55;;;;;;;8.73;3.95;;;11.30;99.90;;;11.44;100.00;99794.16;5032776;28;20053;-75
2023/04/24 03:35:29;;;;;;;8.23;4.28;;;11.20;99.90;;;11.40;100.00;99795.16;5031861;28;20045;-74
2023/04/24 03:38:01;;;;;;;8.27;4.35;;;11.10;99.90;;;11.45;100.00;99802.06;5049030;28;20063;-75
2023/04/24 03:40:38;;;;;;;9.73;3.88;;;11.10;99.90;;;11.35;100.00;99800.56;5033024;28;20042;-74
2023/04/24 03:43:18;;;;;;;6.53;3.90;;;11.10;99.90;;;11.49;100.00;99806.38;5032292;28;20061;-75
2023/04/24 03:45:47;;;;;;;10.40;5.07;;;11.20;99.90;;;11.53;100.00;99808.03;5031798;28;20057;-75
2023/04/24 03:48:16;;;;;;;9.00;5.25;;;11.20;99.90;;;11.62;100.00;99814.88;5032134;28;20068;-75
2023/04/24 03:50:46;;;;;;;9.18;5.25;;;11.30;99.90;;;11.51;100.00;99801.91;5032063;28;20057;-75
2023/04/24 03:53:15;;;;;;;9.80;4.82;;;11.20;99.90;;;11.60;100.00;99817.56;5031819;28;20073;-75
2023/04/24 03:55:44;;;;;;;9.60;4.90;;;11.30;99.90;;;11.74;100.00;99804.00;5031874;28;20099;-75
2023/04/24 03:58:14;;;;;;;11.02;4.43;;;11.40;99.90;;;11.70;100.00;99807.63;5031496;28;20049;-75
2023/04/24 04:00:44;;;;;;;7.00;4.65;;;11.40;99.90;;;11.90;100.00;99821.25;5031678;28;20041;-74
2023/04/24 04:03:47;;;;;;;6.38;4.70;;;11.60;99.90;;;11.63;100.00;99806.88;5032277;28;20053;-74
2023/04/24 04:06:22;;;;;;;10.00;5.40;;;11.40;99.90;;;11.60;100.00;99817.56;5032791;28;20042;-75
2023/04/24 04:08:52;;;;;;;11.13;6.28;;;11.40;99.90;;;11.40;100.00;99834.88;5031749;28;20049;-74
2023/04/24 04:11:20;;;;;;;17.52;7.45;;;11.20;99.90;;;11.26;100.00;99836.97;5031397;28;20046;-75
2023/04/24 04:13:49;;;;;;;14.80;9.10;;;11.10;99.90;;;10.97;100.00;99839.41;5032894;28;20041;-75
2023/04/24 04:16:20;;;;;;;17.40;10.05;;;10.80;99.90;;;10.97;100.00;99850.88;5048258;28;20132;-75
2023/04/24 04:18:51;;;;;;;19.98;10.52;;;10.80;99.90;;;10.93;100.00;99854.50;5031610;28;20483;-75
2023/04/24 04:21:21;;;;;;;17.98;10.73;;;10.70;99.90;;;10.92;100.00;99852.72;5031539;28;20132;-75
2023/04/24 04:23:56;;;;;;;22.25;11.02;;;10.70;99.90;;;10.73;100.00;99861.97;5031636;28;20041;-75
2023/04/24 04:26:33;;;;;;;21.13;9.65;;;10.60;99.90;;;10.73;100.00;99862.84;5031586;28;20045;-76
2023/04/24 04:29:06;;;;;;;13.18;8.32;;;10.50;99.90;;;10.81;100.00;99897.94;5031554;28;20053;-75
2023/04/24 04:31:38;;;;;;;18.10;9.85;;;10.50;99.90;;;10.60;100.00;99876.38;5034056;28;20056;-75
2023/04/24 04:34:11;;;;;;;19.00;9.52;;;10.40;99.90;;;10.42;100.00;99885.53;5035563;28;20049;-75
2023/04/24 04:36:42;;;;;;;19.70;10.10;;;10.30;99.90;;;10.26;100.00;99880.59;5035629;28;20047;-75
2023/04/24 04:39:28;;;;;;;26.20;12.10;;;10.20;99.90;;;10.30;100.00;99929.84;5035549;28;20115;-75
2023/04/24 04:42:00;;;;;;;28.75;13.23;;;10.10;99.90;;;10.17;100.00;99908.03;5035382;28;20073;-75
2023/04/24 04:44:36;;;;;;;25.48;15.55;;;10.00;99.90;;;9.47;100.00;99815.06;5035426;28;20091;-75
2023/04/24 04:47:06;;;;;;;26.63;15.73;;;9.90;99.90;;;10.00;100.00;99913.59;5035365;28;20085;-75
2023/04/24 04:49:38;;;;;;;36.03;17.88;;;9.80;99.90;;;9.99;100.00;99900.41;5035303;28;20072;-75
2023/04/24 04:52:12;;;;;;;32.50;17.95;;;9.80;99.90;;;9.91;100.00;99958.66;5051832;28;20139;-74
2023/04/24 04:54:41;;;;;;;36.13;18.27;;;9.70;99.90;;;9.97;100.00;99953.25;5035209;28;20065;-74
2023/04/24 04:57:09;;;;;;;32.92;18.27;;;9.80;99.90;;;10.09;100.00;99943.38;5035105;28;20051;-74
2023/04/24 04:59:38;;;;;;;30.02;17.98;;;9.90;99.90;;;10.24;100.00;99967.78;5035081;28;20449;-74
2023/04/24 05:02:12;;;;;;;30.45;15.48;;;10.00;99.90;;;10.28;100.00;99968.63;5034965;28;20041;-75
2023/04/24 05:04:40;;;;;;;34.65;15.90;;;10.10;99.90;;;10.27;100.00;99973.03;5036257;28;20046;-75
2023/04/24 05:07:09;;;;;;;39.03;17.55;;;10.10;99.90;;;10.19;100.00;99974.06;5034944;28;20068;-75
2023/04/24 05:09:42;;;;;;;35.33;17.00;;;10.00;99.90;;;10.01;100.00;99976.09;5034687;28;20454;-75
2023/04/24 05:12:10;;;;;;;41.75;17.42;;;9.90;99.90;;;9.96;100.00;99993.78;5034830;28;20057;-75
2023/04/24 05:14:46;;;;;;;35.95;17.80;;;9.80;99.90;;;9.85;100.00;99976.38;5034790;28;20394;-75
2023/04/24 05:17:15;;;;;;;36.35;18.02;;;9.80;99.90;;;9.88;100.00;100000.97;5051266;28;20088;-75
2023/04/24 05:19:43;;;;;;;37.03;19.00;;;9.70;99.90;;;9.89;100.00;100013.25;5034677;28;20095;-75
2023/04/24 05:22:12;;;;;;;38.28;19.48;;;9.70;99.90;;;10.06;100.00;100025.34;5034582;28;20055;-75
2023/04/24 05:24:50;;;;;;;48.47;18.77;;;9.80;99.90;;;9.92;100.00;100022.91;5035588;28;20053;-76
2023/04/24 05:27:36;;;;;;;37.65;18.10;;;9.80;99.90;;;9.82;100.00;100043.31;5034531;28;20503;-75
2023/04/24 05:30:11;;;;;;;39.72;18.20;;;9.70;99.90;;;9.85;100.00;100063.53;5034402;28;20136;-75
2023/04/24 05:32:39;;;;;;;35.97;18.60;;;9.70;99.90;;;9.93;100.00;100051.06;5034422;28;20121;-75
2023/04/24 05:35:09;;;;;;;33.65;17.85;;;9.70;99.90;;;9.92;100.00;100058.13;5034353;28;20048;-75
2023/04/24 05:37:37;;;;;;;40.53;19.00;;;9.70;99.90;;;10.13;100.00;100058.72;5034316;28;20053;-74
2023/04/24 05:40:10;;;;;;;32.80;18.55;;;9.90;99.90;;;10.01;100.00;100073.84;5034297;28;20042;-75
2023/04/24 05:42:38;;;;;;;32.15;18.35;;;9.80;99.90;;;10.11;100.00;100071.06;5035184;28;20045;-75
2023/04/24 05:45:09;;;;;;;37.08;18.85;;;9.90;99.90;;;10.23;100.00;100084.09;5035737;28;20069;-76
2023/04/24 05:47:37;;;;;;;38.58;18.35;;;9.90;99.90;;;10.30;100.00;100093.69;5034539;28;20505;-75
2023/04/24 05:50:07;;;;;;;39.65;18.08;;;10.10;99.90;;;10.33;100.00;100093.63;5032882;28;20053;-75
2023/04/24 05:52:36;;;;;;;36.95;15.55;;;10.10;99.90;;;10.13;100.00;100093.94;5034338;28;20132;-75
2023/04/24 05:55:11;;;;;;;36.75;14.48;;;10.00;99.90;;;10.28;100.00;100111.34;5032973;28;20060;-75
2023/04/24 05:57:42;;;;;;;48.08;12.90;;;10.10;99.90;;;10.11;100.00;100113.34;5032697;28;20145;-75
2023/04/24 06:00:13;;;;;;;46.72;13.38;;;10.00;99.90;;;10.00;100.00;100126.69;5033166;28;20438;-74
2023/04/24 06:02:45;;;;;;;40.92;12.63;;;9.80;99.90;;;9.95;100.00;100132.03;5033086;28;20045;-75
2023/04/24 06:05:15;;;;;;;30.15;11.55;;;9.80;99.90;;;9.91;100.00;100148.81;5032714;28;20084;-75
2023/04/24 06:07:44;;;;;;;33.22;11.50;;;9.80;99.90;;;9.96;100.00;100149.66;5033687;28;20144;-75
2023/04/24 06:10:13;;;;;;;37.40;11.73;;;9.80;99.90;;;10.10;100.00;100161.81;5032718;28;20050;-74
2023/04/24 06:12:44;;;;;;;26.48;11.40;;;9.90;99.90;;;9.97;100.00;100161.06;5032966;28;20049;-75
2023/04/24 06:15:17;;;;;;;39.13;11.98;;;9.80;99.90;;;10.00;100.00;100179.53;5032546;28;20103;-75
2023/04/24 06:17:54;;;;;;;30.60;10.90;;;9.80;99.90;;;9.99;100.00;100173.38;5032462;28;20056;-75
2023/04/24 06:20:23;;;;;;;41.45;11.27;;;9.80;99.90;;;10.10;100.00;100178.56;5033709;28;20567;-75
2023/04/24 06:22:52;;;;;;;34.95;11.18;;;9.90;99.90;;;10.04;100.00;100181.25;5032359;28;20144;-76
2023/04/24 06:25:22;;;;;;;39.22;11.27;;;9.90;99.90;;;10.06;100.00;100183.84;5033282;28;20421;-75
2023/04/24 06:27:51;;;;;;;37.08;11.38;;;9.90;99.90;;;10.19;100.00;100196.03;5032390;28;20047;-75
2023/04/24 06:30:20;;;;;;;42.92;11.57;;;10.00;99.90;;;10.19;100.00;100206.59;5032356;28;20099;-75
2023/04/24 06:32:48;;;;;;;35.97;10.80;;;10.00;99.90;;;10.16;100.00;100207.53;5033827;28;20073;-76
2023/04/24 06:35:16;;;;;;;38.20;10.50;;;10.00;99.90;;;10.17;100.00;100217.19;5033547;28;20037;-75
2023/04/24 06:37:45;;;;;;;37.72;10.30;;;10.00;99.90;;;9.97;100.00;100172.50;5033275;28;20041;-73
2023/04/24 06:40:13;;;;;;;36.40;10.32;;;10.00;99.90;;;10.26;100.00;100224.16;5032075;28;20491;-74
2023/04/24 06:42:43;;;;;;;31.90;9.02;;;10.00;99.90;;;9.90;100.00;100201.66;5033357;28;20356;-72
2023/04/24 06:45:12;;;;;;;37.15;8.52;;;10.00;99.90;;;10.09;100.00;100232.25;5033134;28;20139;-71
2023/04/24 06:47:55;;;;;;;40.95;10.35;;;9.90;99.90;;;10.03;100.00;100250.81;5151737;27;20214;-74
2023/04/24 06:50:24;;;;;;;28.42;8.38;;;9.90;99.90;;;10.10;100.00;100251.66;5131292;28;20067;-74
2023/04/24 06:52:52;;;;;;;40.50;10.77;;;9.90;99.90;;;10.11;100.00;100251.63;5130935;28;20504;-72
2023/04/24 06:55:20;;;;;;;35.47;9.20;;;9.90;99.90;;;10.25;100.00;100264.66;5131218;28;20039;-72
2023/04/24 06:57:49;;;;;;;38.75;9.15;;;10.00;99.90;;;10.15;100.00;100263.03;5130860;28;20035;-74
2023/04/24 07:00:17;;;;;;;34.58;9.13;;;10.00;99.90;;;10.16;100.00;100272.72;5130697;28;20040;-74
2023/04/24 07:02:46;;;;;;;38.30;8.82;;;10.00;99.90;;;10.26;100.00;100274.38;5131197;28;20043;-75
2023/04/24 07:05:19;;;;;;;39.88;8.60;;;10.00;99.90;;;10.21;100.00;100281.44;5130924;28;20045;-70
2023/04/24 07:07:49;;;;;;;39.03;8.63;;;10.00;99.90;;;10.22;100.00;100283.22;5112433;28;20054;-73
2023/04/24 07:10:17;;;;;;;29.92;8.73;;;10.10;99.90;;;10.22;100.00;100299.06;5131152;28;20040;-71
2023/04/24 07:12:46;;;;;;;24.60;7.78;;;10.00;99.90;;;10.14;100.00;100298.28;5130507;28;20066;-73
2023/04/24 07:15:15;;;;;;;27.05;7.43;;;10.00;99.90;;;10.05;100.00;100301.88;5130696;28;20040;-70
2023/04/24 07:17:44;;;;;;;29.95;7.43;;;9.90;99.90;;;10.07;99.36;100308.00;5130673;28;20408;-71
2023/04/24 07:20:14;;;;;;;24.85;7.10;;;9.90;99.90;;;10.27;99.21;100323.66;5130222;28;20092;-71
2023/04/24 07:22:44;;;;;;;25.45;7.28;;;10.00;99.90;;;10.31;98.78;100320.97;5112170;28;20052;-71
2023/04/24 07:25:12;;;;;;;29.00;7.70;;;10.10;99.90;;;10.29;98.20;100313.94;5112224;28;20046;-73
2023/04/24 07:27:40;;;;;;;35.88;8.30;;;10.10;99.90;;;10.26;99.46;100325.44;5130154;28;20046;-73
2023/04/24 07:30:10;;;;;;;23.55;7.20;;;10.10;99.90;;;10.07;97.76;100310.66;5111999;28;20078;-73
2023/04/24 07:32:38;;;;;;;25.10;7.35;;;10.00;99.90;;;10.16;96.98;100337.03;5112014;28;20104;-73
2023/04/24 07:35:09;;;;;;;29.48;7.22;;;10.00;99.90;;;10.25;97.07;100349.25;5130118;28;20503;-70
2023/04/24 07:37:37;;;;;;;;;;;10.00;99.90;;;10.35;96.60;100350.88;5130555;28;20122;-70
2023/04/24 07:40:09;;;;;;;28.10;6.90;;;10.10;99.90;;;10.22;95.89;100355.44;5130100;28;19919;-70
2023/04/24 07:42:38;;;;;;;26.17;7.03;;;10.10;99.90;;;10.22;96.21;100362.50;5130024;28;20070;-70
2023/04/24 07:45:08;;;;;;;25.42;7.00;;;10.00;99.90;;;10.20;96.71;100365.13;5129983;28;20395;-69
2023/04/24 07:47:38;;;;;;;25.15;7.47;;;10.00;99.90;;;10.12;96.67;100369.66;5130254;28;20101;-70
2023/04/24 07:50:07;;;;;;;24.40;6.82;;;10.00;99.90;;;10.19;94.66;100381.03;5129928;28;20434;-69
2023/04/24 07:52:35;;;;;;;30.25;7.47;;;10.00;99.90;;;10.13;94.32;100368.75;5130026;28;20100;-70
2023/04/24 07:55:05;;;;;;;25.42;7.22;;;10.00;99.90;;;10.03;93.51;100380.28;5129743;28;20471;-70
2023/04/24 07:57:35;;;;;;;27.90;7.00;;;9.90;99.90;;;10.13;93.24;100379.31;5125905;28;20050;-71
2023/04/24 08:00:05;;;;;;;18.20;6.97;;;9.90;99.90;;;9.97;91.64;100375.94;5115970;28;20089;-69
2023/04/24 08:02:38;;;;;;;18.30;5.85;;;9.80;99.90;;;9.96;90.60;100386.50;5115954;28;20292;-68
2023/04/24 08:05:08;;;;;;;13.43;5.97;;;9.80;99.90;;;9.98;90.37;100393.53;5116130;28;20068;-69
2023/04/24 08:07:37;;;;;;;17.67;5.93;;;9.80;99.90;;;10.13;90.48;100397.81;5097749;28;20073;-70
2023/04/24 08:10:07;;;;;;;24.95;6.22;;;9.90;99.90;;;10.12;90.18;100392.56;5115750;28;20039;-71
2023/04/24 08:12:38;;;;;;;17.52;5.78;;;10.00;99.90;;;10.16;88.48;100396.91;5116122;28;20121;-68
2023/04/24 08:15:07;;;;;;;14.45;5.32;;;10.00;99.90;;;10.13;87.43;100407.50;5115720;28;20126;-66
2023/04/24 08:17:36;;;;;;;14.98;5.80;;;9.90;99.90;;;10.19;86.41;100412.72;5097578;28;20143;-67
2023/04/24 08:20:10;;;;;;;13.40;5.60;;;10.00;99.90;;;10.23;85.69;100404.75;5115577;28;20046;-67
2023/04/24 08:22:38;;;;;;;15.05;5.78;;;10.00;99.90;;;10.30;85.40;100424.94;5115599;28;20175;-65
2023/04/24 08:25:08;;;;;;;24.55;5.78;;;10.10;99.90;;;10.47;85.48;100416.84;5115473;28;20089;-66
2023/04/24 08:27:38;;;;;;;17.33;5.77;;;10.30;99.90;;;10.38;84.37;100420.44;5115412;28;20412;-66
2023/04/24 08:30:08;;;;;;;;;;;10.20;99.90;;;10.43;85.19;100439.78;5115906;28;20400;-71
2023/04/24 08:32:37;;;;;;;18.77;5.82;;;10.20;99.90;;;10.34;87.19;100447.81;5115410;28;19920;-71
2023/04/24 08:35:08;;;;;;;14.25;6.20;;;10.20;99.90;;;10.26;87.96;100452.28;5115587;28;20453;-69
2023/04/24 08:37:38;;;;;;;14.63;5.35;;;10.10;99.90;;;10.10;87.14;100455.13;5115165;28;20085;-66
2023/04/24 08:40:13;;;;;;;12.18;5.07;;;9.90;99.90;;;9.95;86.57;100433.19;5115803;28;20130;-71
2023/04/24 08:42:45;;;;;;;9.05;4.78;;;9.90;99.90;;;10.00;86.03;100455.16;5115204;28;20396;-70
2023/04/24 08:45:14;;;;;;;12.30;4.78;;;9.80;99.90;;;10.13;85.36;100470.91;5115155;28;20378;-70
2023/04/24 08:47:44;;;;;;;12.68;4.10;;;9.90;99.90;;;10.10;85.38;100471.84;5114861;28;20083;-66
2023/04/24 08:50:12;;;;;;;9.90;4.03;;;9.90;99.90;;;10.33;84.91;100469.88;5115554;28;20104;-67
2023/04/24 08:52:43;;;;;;;14.00;4.65;;;10.10;99.90;;;10.22;85.08;100466.44;5114903;28;20035;-68
2023/04/24 08:55:11;;;;;;;12.20;4.60;;;10.10;99.90;;;9.77;85.29;100429.84;5114987;28;20052;-68
2023/04/24 08:57:40;;;;;;;11.38;4.72;;;10.00;99.90;;;10.06;86.80;100485.06;5115129;28;20043;-66
2023/04/24 09:00:12;;;;;;;11.70;4.40;;;9.90;99.90;;;9.94;90.12;100480.75;5115089;28;20043;-68
2023/04/24 09:02:44;;;;;;;11.50;4.43;;;9.70;99.90;;;9.93;92.00;100490.44;5115088;28;20044;-68
2023/04/24 09:05:15;;;;;;;12.80;4.82;;;9.70;99.90;;;9.92;91.76;100493.97;5114678;28;20040;-69
2023/04/24 09:07:51;;;;;;;12.80;4.67;;;9.70;99.90;;;10.06;91.51;100493.88;5096456;28;20056;-67
2023/04/24 09:10:19;;;;;;;11.32;4.55;;;9.80;99.90;;;10.17;91.30;100499.06;5095628;28;20058;-69
2023/04/24 09:12:48;;;;;;;8.07;4.00;;;9.90;99.90;;;10.13;88.72;100494.72;5114577;28;20412;-69
2023/04/24 09:15:20;;;;;;;14.18;5.03;;;9.90;99.90;;;10.19;87.84;100502.59;5114840;28;20047;-70
2023/04/24 09:17:49;;;;;;;14.02;4.53;;;10.00;99.90;;;10.18;89.02;100501.69;5115139;28;20123;-71
2023/04/24 09:20:17;;;;;;;12.55;4.13;;;10.00;99.90;;;10.10;88.49;100479.78;5114924;28;20051;-71
2023/04/24 09:22:46;;;;;;;13.52;4.03;;;10.00;99.90;;;10.17;87.77;100493.78;5096408;28;20233;-70
2023/04/24 09:25:14;;;;;;;11.90;4.05;;;10.00;99.90;;;10.29;87.25;100483.13;5096419;28;20047;-69
2023/04/24 09:27:46;;;;;;;5.15;3.45;;;10.00;99.90;;;10.16;85.26;100492.94;5114758;28;20051;-70
2023/04/24 09:30:15;;;;;;;11.07;4.13;;;10.10;99.90;;;10.34;83.87;100494.50;5096328;28;20468;-70
2023/04/24 09:32:44;;;;;;;8.05;4.20;;;10.10;99.90;;;10.30;83.78;100506.88;5114657;28;20074;-69
2023/04/24 09:35:15;;;;;;;6.97;3.70;;;10.10;99.90;;;10.22;84.02;100463.78;5114230;28;20424;-72
2023/04/24 09:37:46;;;;;;;8.57;4.30;;;10.20;99.90;;;10.54;82.99;100519.00;5114419;28;20463;-71
2023/04/24 09:40:18;;;;;;;8.32;3.88;;;10.40;99.90;;;10.55;83.36;100512.84;5114299;28;20051;-71
2023/04/24 09:42:55;;;;;;;12.63;4.13;;;10.40;99.90;;;10.42;84.42;100519.09;5114049;28;20446;-71
2023/04/24 09:45:28;;;;;;;10.20;4.25;;;10.30;99.90;;;10.52;85.63;100528.72;5114174;28;20040;-71
2023/04/24 09:47:58;;;;;;;13.52;4.40;;;10.30;99.90;;;10.63;86.17;100540.06;5114304;28;20051;-71
2023/04/24 09:50:27;;;;;;;16.23;4.03;;;10.40;99.90;;;10.51;85.83;100532.25;5114231;28;20044;-70
2023/04/24 09:53:00;;;;;;;11.70;4.35;;;10.30;99.90;;;10.62;85.71;100535.66;5114143;28;20071;-70
2023/04/24 09:55:29;;;;;;;11.85;4.28;;;10.40;99.90;;;10.64;84.80;100545.34;5113794;28;20451;-70
2023/04/24 09:58:00;;;;;;;14.85;4.50;;;10.50;99.90;;;10.77;83.49;100559.31;5113918;28;20047;-70
2023/04/24 10:00:31;;;;;;;10.77;4.43;;;10.60;99.90;;;10.54;83.64;100563.97;5114158;28;20053;-69
2023/04/24 10:03:03;;;;;;;14.65;4.35;;;10.40;99.90;;;10.30;85.11;100564.19;5114101;28;20040;-69
2023/04/24 10:05:33;;;;;;;11.43;3.72;;;10.20;99.90;;;10.36;84.00;100570.28;5113864;28;20051;-68
2023/04/24 10:08:05;;;;;;;9.27;4.03;;;10.20;99.90;;;10.42;84.31;100577.28;5095398;28;20047;-68
2023/04/24 10:10:38;;;;;;;10.75;4.03;;;10.20;99.90;;;10.43;84.16;100563.19;5113591;28;20047;-69
2023/04/24 10:13:08;;;;;;;11.00;3.85;;;10.20;99.90;;;10.41;84.12;100579.06;5113779;28;20039;-68
2023/04/24 10:15:37;;;;;;;9.60;4.05;;;10.20;99.90;;;10.58;84.52;100573.63;5113705;28;20078;-68
2023/04/24 10:18:08;;;;;;;11.48;4.68;;;10.30;99.90;;;10.64;84.46;100579.75;5114004;28;20074;-69
2023/04/24 10:20:39;;;;;;;14.68;4.75;;;10.40;99.90;;;10.60;85.37;100580.66;5113221;28;20035;-71
2023/04/24 10:23:08;;;;;;;15.43;4.75;;;10.50;99.90;;;10.54;86.58;100575.41;5113211;28;20046;-71